Impacts TAF Board INFO
FOR SITUATIONAL AWARENESS. NOT TO BE USED FOR FLIGHT PLANNING PURPOSES.
IDs:

KDCA - Washington/National, VA, US

Issued at 0525 UTC 12 Dec 2017
Updated at 0821 UTC 12 Dec 2017
Potential Impact None Slight Moderate High
Time<<13/09Z 13/10Z 13/11Z 13/12Z 13/13Z 13/14Z 13/15Z 13/16Z 13/17Z 13/18Z 13/19Z 13/20Z 13/21Z
Type PRVL PRVL PRVL
VIS >6 >6 >6
CIG -- -- --
Cover SCT SCT SCT
FltCat VFR VFR VFR
WX -- -- --
WDir 300 300 300
WSpd 12 12 12
WGst 22 22 22

Raw TAF
KDCA 120525Z 1206/1312 18007KT P6SM BKN110 WS020/20040KT
  FM120900 18008KT P6SM OVC110
  FM121400 22009KT P6SM BKN070
  FM121700 27012G20KT P6SM BKN080
  FM122000 30018G33KT P6SM BKN050
  FM130400 30012G22KT P6SM SCT050


METAR Board
Radar Display
Forecast Discussion

FOR SITUATIONAL AWARENESS. NOT TO BE USED FOR FLIGHT PLANNING PURPOSES.